| time (UTC) | temp F | wind direction | speed MPH | gust MPH | rain 1hr in | rain 24hr in | rain mn in | humidity % | barometer mb |
| 20260904075239 | 68 | 196 | 1.0 | 8.0 | 0.00 | 0.00 | 0.00 | 36 | 1006.2 |
| 20260904074243 | 70 | 185 | 6.0 | 12.0 | 0.00 | 0.00 | 0.00 | 35 | 1006.2 |
| 20260904073245 | 71 | 207 | 6.0 | 10.0 | 0.00 | 0.00 | 0.00 | 34 | 1006.2 |
| 20260904072235 | 71 | 193 | 9.0 | 14.0 | 0.00 | 0.00 | 0.00 | 34 | 1006.2 |
| 20260904071231 | 72 | 178 | 8.0 | 12.0 | 0.00 | 0.00 | 0.00 | 32 | 1006.2 |
| 20260904070240 | 73 | 173 | 8.0 | 13.0 | 0.00 | 0.00 | 0.00 | 31 | 1006.2 |
| 20260904065242 | 73 | 169 | 10.0 | 14.0 | 0.00 | 0.00 | 0.00 | 31 | 1006.3 |
| 20260904064255 | 72 | 360 | 8.0 | 12.0 | 0.00 | 0.00 | 0.00 | 31 | 1006.5 |
| 20260904063243 | 72 | 360 | 6.0 | 10.0 | 0.00 | 0.00 | 0.00 | 31 | 1006.5 |
| 20260904062310 | 72 | 360 | 7.0 | 14.0 | 0.00 | 0.00 | 0.00 | 31 | 1006.5 |
| 20260904061231 | 71 | 175 | 6.0 | 8.0 | 0.00 | 0.00 | 0.00 | 30 | 1006.8 |
| 20260904060253 | 70 | 174 | 5.0 | 7.0 | 0.00 | 0.00 | 0.00 | 32 | 1006.8 |
| 20260904055236 | 69 | 161 | 2.0 | 5.0 | 0.00 | 0.00 | 0.00 | 33 | 1006.8 |
| 20260904054244 | 69 | 161 | 2.0 | 4.0 | 0.00 | 0.00 | 0.00 | 31 | 1006.9 |
| 20260904053248 | 71 | 161 | 2.0 | 5.0 | 0.00 | 0.00 | 0.00 | 29 | 1006.9 |
| 20260904052231 | 71 | 360 | 3.0 | 6.0 | 0.00 | 0.00 | 0.00 | 29 | 1006.9 |
| 20260904051231 | 70 | 360 | 3.0 | 7.0 | 0.00 | 0.00 | 0.00 | 27 | 1007.2 |
| 20260904050231 | 68 | 169 | 2.0 | 8.0 | 0.00 | 0.00 | 0.00 | 31 | 1007.2 |
| 20260904045234 | 67 | 163 | 1.0 | 6.0 | 0.00 | 0.00 | 0.00 | 33 | 1007.4 |
| 20260904044303 | 67 | 163 | 2.0 | 7.0 | 0.00 | 0.00 | 0.00 | 31 | 1006.9 |
| 20260904043244 | 67 | 360 | 4.0 | 7.0 | 0.00 | 0.00 | 0.00 | 31 | 1006.9 |
| 20260904042310 | 68 | 170 | 3.0 | 6.0 | 0.00 | 0.00 | 0.00 | 30 | 1006.8 |
| 20260904041258 | 68 | 185 | 3.0 | 4.0 | 0.00 | 0.00 | 0.00 | 29 | 1006.8 |
| 20260904040238 | 69 | 360 | 2.0 | 5.0 | 0.00 | 0.00 | 0.00 | 30 | 1006.8 |
| 20260904035245 | 70 | 255 | 2.0 | 4.0 | 0.00 | 0.00 | 0.00 | 27 | 1006.8 |
| 20260904034247 | 72 | 229 | 1.0 | 4.0 | 0.00 | 0.00 | 0.00 | 26 | 1006.6 |
| 20260904033231 | 73 | 229 | 3.0 | 4.0 | 0.00 | 0.00 | 0.00 | 25 | 1006.6 |
| 20260904032259 | 73 | 229 | 3.0 | 5.0 | 0.00 | 0.00 | 0.00 | 25 | 1006.3 |
| 20260904031240 | 75 | 232 | 2.0 | 5.0 | 0.00 | 0.00 | 0.00 | 23 | 1006.2 |
| 20260904030240 | 75 | 232 | 2.0 | 5.0 | 0.00 | 0.00 | 0.00 | 23 | 1006.2 |
| 20260904025309 | 76 | 229 | 3.0 | 8.0 | 0.00 | 0.00 | 0.00 | 22 | 1006.2 |
| 20260904024241 | 77 | 211 | 4.0 | 7.0 | 0.00 | 0.00 | 0.00 | 21 | 1005.7 |
| 20260904023241 | 77 | 208 | 5.0 | 9.0 | 0.00 | 0.00 | 0.00 | 21 | 1005.7 |
| 20260904022242 | 76 | 203 | 6.0 | 12.0 | 0.00 | 0.00 | 0.00 | 22 | 1005.5 |
| 20260904021230 | 77 | 182 | 4.0 | 12.0 | 0.00 | 0.00 | 0.00 | 21 | 1004.9 |
| 20260904020301 | 77 | 182 | 6.0 | 9.0 | 0.00 | 0.00 | 0.00 | 21 | 1004.9 |
| 20260904015246 | 78 | 360 | 4.0 | 9.0 | 0.00 | 0.00 | 0.00 | 19 | 1004.9 |
| 20260904014234 | 80 | 360 | 4.0 | 8.0 | 0.00 | 0.00 | 0.00 | 18 | 1004.7 |
| 20260904013245 | 80 | 202 | 4.0 | 7.0 | 0.00 | 0.00 | 0.00 | 17 | 1004.7 |
| 20260904012248 | 83 | 169 | 5.0 | 9.0 | 0.00 | 0.00 | 0.00 | 16 | 1004.4 |
| 20260904011250 | 84 | 165 | 7.0 | 11.0 | 0.00 | 0.00 | 0.00 | 15 | 1004.3 |
| 20260904010233 | 84 | 171 | 9.0 | 15.0 | 0.00 | 0.00 | 0.00 | 15 | 1004.3 |
| 20260904005310 | 86 | 182 | 12.0 | 18.0 | 0.00 | 0.00 | 0.00 | 14 | 1004.3 |
| 20260904004255 | 88 | 171 | 9.0 | 17.0 | 0.00 | 0.00 | 0.00 | 14 | 1004.3 |
| 20260904003239 | 88 | 141 | 8.0 | 17.0 | 0.00 | 0.00 | 0.00 | 13 | 1004.3 |
| 20260904002240 | 89 | 197 | 13.0 | 22.0 | 0.00 | 0.00 | 0.00 | 13 | 1004.3 |
| 20260904001240 | 90 | 204 | 10.0 | 19.0 | 0.00 | 0.00 | 0.00 | 10 | 1004.3 |
| 20260904000233 | 90 | 208 | 10.0 | 19.0 | 0.00 | 0.00 | 0.00 | 9 | 1004.3 |
| 20260903235239 | 91 | 198 | 7.0 | 17.0 | 0.00 | 0.00 | 0.00 | 9 | 1004.3 |
| 20260903234301 | 91 | 173 | 11.0 | 16.0 | 0.00 | 0.00 | 0.00 | 9 | 1004.4 |
| 20260903233247 | 92 | 190 | 9.0 | 16.0 | 0.00 | 0.00 | 0.00 | 9 | 1004.4 |
| 20260903232232 | 92 | 169 | 6.0 | 12.0 | 0.00 | 0.00 | 0.00 | 9 | 1004.4 |
| 20260903231231 | 92 | 166 | 9.0 | 16.0 | 0.00 | 0.00 | 0.00 | 10 | 1004.7 |
| 20260903230235 | 92 | 184 | 6.0 | 19.0 | 0.00 | 0.00 | 0.00 | 10 | 1004.7 |
| 20260903225240 | 93 | 167 | 3.0 | 13.0 | 0.00 | 0.00 | 0.00 | 11 | 1004.8 |
| 20260903224240 | 93 | 192 | 8.0 | 18.0 | 0.00 | 0.00 | 0.00 | 10 | 1004.9 |
| 20260903223239 | 92 | 141 | 6.0 | 18.0 | 0.00 | 0.00 | 0.00 | 10 | 1004.9 |
| 20260903222246 | 93 | 139 | 5.0 | 12.0 | 0.00 | 0.00 | 0.00 | 12 | 1004.9 |
| 20260903221235 | 92 | 143 | 5.0 | 10.0 | 0.00 | 0.00 | 0.00 | 11 | 1005.1 |
| 20260903220245 | 92 | 195 | 11.0 | 20.0 | 0.00 | 0.00 | 0.00 | 11 | 1005.1 |
| 20260903215233 | 93 | 192 | 12.0 | 17.0 | 0.00 | 0.00 | 0.00 | 11 | 1005.3 |
| 20260903214241 | 93 | 177 | 5.0 | 12.0 | 0.00 | 0.00 | 0.00 | 13 | 1005.5 |
| 20260903213240 | 92 | 89 | 5.0 | 11.0 | 0.00 | 0.00 | 0.00 | 12 | 1005.5 |
| 20260903212306 | 92 | 161 | 7.0 | 15.0 | 0.00 | 0.00 | 0.00 | 12 | 1005.6 |
| 20260903211246 | 93 | 166 | 5.0 | 11.0 | 0.00 | 0.00 | 0.00 | 12 | 1005.7 |
| 20260903210249 | 93 | 153 | 3.0 | 10.0 | 0.00 | 0.00 | 0.00 | 11 | 1005.7 |
| 20260903205233 | 92 | 102 | 6.0 | 11.0 | 0.00 | 0.00 | 0.00 | 12 | 1006.0 |
| 20260903204237 | 92 | 69 | 5.0 | 11.0 | 0.00 | 0.00 | 0.00 | 12 | 1006.2 |
| 20260903203239 | 91 | 355 | 4.0 | 6.0 | 0.00 | 0.00 | 0.00 | 12 | 1006.2 |
| 20260903202241 | 90 | 80 | 4.0 | 11.0 | 0.00 | 0.00 | 0.00 | 13 | 1006.4 |
| 20260903201244 | 90 | 161 | 6.0 | 18.0 | 0.00 | 0.00 | 0.00 | 13 | 1006.6 |
| 20260903200246 | 90 | 254 | 3.0 | 16.0 | 0.00 | 0.00 | 0.00 | 13 | 1006.6 |
| 20260903195250 | 90 | 181 | 5.0 | 11.0 | 0.00 | 0.00 | 0.00 | 14 | 1006.6 |
| 20260903194235 | 89 | 48 | 5.0 | 11.0 | 0.00 | 0.00 | 0.00 | 14 | 1006.9 |
| 20260903193237 | 90 | 101 | 6.0 | 11.0 | 0.00 | 0.00 | 0.00 | 15 | 1006.9 |
| 20260903192300 | 88 | 136 | 5.0 | 10.0 | 0.00 | 0.00 | 0.00 | 16 | 1007.2 |
| 20260903191302 | 88 | 182 | 4.0 | 12.0 | 0.00 | 0.00 | 0.00 | 15 | 1007.5 |
| 20260903190246 | 88 | 174 | 7.0 | 11.0 | 0.00 | 0.00 | 0.00 | 15 | 1007.5 |
| 20260903185246 | 87 | 149 | 7.0 | 15.0 | 0.00 | 0.00 | 0.00 | 16 | 1007.7 |
| 20260903184311 | 88 | 107 | 4.0 | 11.0 | 0.00 | 0.00 | 0.00 | 15 | 1008.0 |
| 20260903183235 | 87 | 183 | 5.0 | 16.0 | 0.00 | 0.00 | 0.00 | 16 | 1008.0 |
| 20260903182232 | 87 | 119 | 6.0 | 16.0 | 0.00 | 0.00 | 0.00 | 16 | 1008.1 |
| 20260903181238 | 86 | 209 | 5.0 | 15.0 | 0.00 | 0.00 | 0.00 | 17 | 1008.2 |
| 20260903180236 | 86 | 257 | 6.0 | 13.0 | 0.00 | 0.00 | 0.00 | 17 | 1008.2 |
| 20260903175233 | 84 | 50 | 4.0 | 17.0 | 0.00 | 0.00 | 0.00 | 16 | 1008.6 |
| 20260903174301 | 84 | 263 | 6.0 | 12.0 | 0.00 | 0.00 | 0.00 | 17 | 1008.7 |
| 20260903173243 | 84 | 182 | 7.0 | 14.0 | 0.00 | 0.00 | 0.00 | 16 | 1008.7 |
| 20260903172243 | 84 | 239 | 5.0 | 11.0 | 0.00 | 0.00 | 0.00 | 19 | 1008.7 |
| 20260903171249 | 83 | 289 | 7.0 | 12.0 | 0.00 | 0.00 | 0.00 | 17 | 1008.7 |
| 20260903170235 | 83 | 215 | 8.0 | 17.0 | 0.00 | 0.00 | 0.00 | 18 | 1008.7 |
| 20260903165236 | 82 | 218 | 8.0 | 14.0 | 0.00 | 0.00 | 0.00 | 18 | 1008.9 |
| 20260903164259 | 82 | 277 | 4.0 | 14.0 | 0.00 | 0.00 | 0.00 | 19 | 1008.7 |
| 20260903163301 | 81 | 241 | 8.0 | 12.0 | 0.00 | 0.00 | 0.00 | 18 | 1008.7 |
| 20260903162241 | 81 | 188 | 3.0 | 9.0 | 0.00 | 0.00 | 0.00 | 21 | 1008.8 |
| 20260903161302 | 80 | 202 | 7.0 | 13.0 | 0.00 | 0.00 | 0.00 | 21 | 1008.8 |
| 20260903160244 | 79 | 227 | 7.0 | 14.0 | 0.00 | 0.00 | 0.00 | 23 | 1008.8 |
| 20260903155242 | 78 | 224 | 5.0 | 11.0 | 0.00 | 0.00 | 0.00 | 25 | 1008.8 |
| 20260903154245 | 77 | 174 | 6.0 | 11.0 | 0.00 | 0.00 | 0.00 | 26 | 1008.8 |
| 20260903153249 | 76 | 246 | 6.0 | 13.0 | 0.00 | 0.00 | 0.00 | 26 | 1008.8 |
| 20260903152233 | 75 | 219 | 10.0 | 14.0 | 0.00 | 0.00 | 0.00 | 26 | 1008.9 |
| 20260903151248 | 74 | 217 | 5.0 | 12.0 | 0.00 | 0.00 | 0.00 | 26 | 1009.0 |
| 20260903150232 | 74 | 184 | 9.0 | 13.0 | 0.00 | 0.00 | 0.00 | 26 | 1009.0 |
| 20260903145237 | 73 | 202 | 9.0 | 17.0 | 0.00 | 0.00 | 0.00 | 27 | 1009.0 |
| 20260903144234 | 72 | 175 | 7.0 | 11.0 | 0.00 | 0.00 | 0.00 | 28 | 1009.0 |
| 20260903143239 | 69 | 360 | 7.0 | 12.0 | 0.00 | 0.00 | 0.00 | 32 | 1009.0 |
| 20260903142305 | 68 | 227 | 8.0 | 11.0 | 0.00 | 0.00 | 0.00 | 34 | 1009.1 |
| 20260903141309 | 67 | 214 | 8.0 | 14.0 | 0.00 | 0.00 | 0.00 | 35 | 1008.9 |
| 20260903140259 | 66 | 194 | 9.0 | 16.0 | 0.00 | 0.00 | 0.00 | 36 | 1008.9 |
| 20260903135318 | 65 | 197 | 7.0 | 14.0 | 0.00 | 0.00 | 0.00 | 37 | 1008.8 |
| 20260903134259 | 65 | 212 | 7.0 | 11.0 | 0.00 | 0.00 | 0.00 | 38 | 1008.7 |
| 20260903133241 | 64 | 360 | 9.0 | 14.0 | 0.00 | 0.00 | 0.00 | 39 | 1008.7 |
| 20260903132244 | 63 | 178 | 9.0 | 14.0 | 0.00 | 0.00 | 0.00 | 40 | 1008.7 |
| 20260903131243 | 64 | 202 | 8.0 | 14.0 | 0.00 | 0.00 | 0.00 | 40 | 1008.4 |
| 20260903130235 | 64 | 213 | 8.0 | 11.0 | 0.00 | 0.00 | 0.00 | 39 | 1008.4 |
| 20260903125305 | 64 | 205 | 5.0 | 12.0 | 0.00 | 0.00 | 0.00 | 38 | 1008.2 |
| 20260903124250 | 65 | 194 | 7.0 | 14.0 | 0.00 | 0.00 | 0.00 | 37 | 1008.1 |
| 20260903123303 | 64 | 188 | 9.0 | 14.0 | 0.00 | 0.00 | 0.00 | 37 | 1008.1 |
| 20260903122247 | 63 | 360 | 8.0 | 14.0 | 0.00 | 0.00 | 0.00 | 39 | 1007.9 |
| 20260903121238 | 63 | 196 | 8.0 | 11.0 | 0.00 | 0.00 | 0.00 | 40 | 1007.8 |
| 20260903120241 | 62 | 202 | 7.0 | 9.0 | 0.00 | 0.00 | 0.00 | 42 | 1007.8 |
| 20260903115306 | 60 | 360 | 6.0 | 9.0 | 0.00 | 0.00 | 0.00 | 46 | 1007.8 |
| 20260903114244 | 59 | 188 | 2.0 | 6.0 | 0.00 | 0.00 | 0.00 | 49 | 1008.0 |
| 20260903113247 | 56 | 360 | 2.0 | 3.0 | 0.00 | 0.00 | 0.00 | 60 | 1008.0 |
| 20260903112234 | 56 | 186 | 0.0 | 2.0 | 0.00 | 0.00 | 0.00 | 62 | 1007.8 |
| 20260903111238 | 56 | 186 | 0.0 | 2.0 | 0.00 | 0.00 | 0.00 | 63 | 1007.8 |
| 20260903110245 | 56 | 360 | 0.0 | 2.0 | 0.00 | 0.00 | 0.00 | 62 | 1007.8 |
| 20260903105246 | 56 | 360 | 2.0 | 4.0 | 0.00 | 0.00 | 0.00 | 62 | 1007.7 |
| 20260903104234 | 57 | 360 | 1.0 | 2.0 | 0.00 | 0.00 | 0.00 | 62 | 1007.7 |
| 20260903103243 | 58 | 360 | 0.0 | 1.0 | 0.00 | 0.00 | 0.00 | 60 | 1007.7 |
| 20260903102245 | 58 | 186 | 2.0 | 3.0 | 0.00 | 0.00 | 0.00 | 58 | 1007.6 |
| 20260903101301 | 59 | 186 | 2.0 | 3.0 | 0.00 | 0.00 | 0.00 | 57 | 1007.6 |
| 20260903100238 | 61 | 360 | 0.0 | 2.0 | 0.00 | 0.00 | 0.00 | 54 | 1007.6 |
| 20260903095248 | 61 | 360 | 0.0 | 4.0 | 0.00 | 0.00 | 0.00 | 53 | 1007.7 |
| 20260903094305 | 61 | 186 | 3.0 | 5.0 | 0.00 | 0.00 | 0.00 | 53 | 1007.7 |
| 20260903093312 | 62 | 184 | 4.0 | 10.0 | 0.00 | 0.00 | 0.00 | 51 | 1007.7 |
| 20260903092245 | 62 | 188 | 7.0 | 9.0 | 0.00 | 0.00 | 0.00 | 52 | 1007.9 |
| 20260903091243 | 62 | 182 | 6.0 | 8.0 | 0.00 | 0.00 | 0.00 | 52 | 1008.0 |
| 20260903090248 | 62 | 171 | 0.0 | 2.0 | 0.00 | 0.00 | 0.00 | 54 | 1008.0 |
| 20260903085245 | 61 | 171 | 1.0 | 8.0 | 0.00 | 0.00 | 0.00 | 54 | 1007.8 |
| 20260903084303 | 58 | 167 | 5.0 | 7.0 | 0.00 | 0.00 | 0.00 | 62 | 1008.0 |
| 20260903083247 | 59 | 167 | 4.0 | 5.0 | 0.00 | 0.00 | 0.00 | 60 | 1008.0 |
| 20260903082247 | 60 | 167 | 2.0 | 5.0 | 0.00 | 0.00 | 0.00 | 59 | 1008.0 |
| 20260903081238 | 61 | 360 | 4.0 | 5.0 | 0.00 | 0.00 | 0.00 | 58 | 1008.1 |
| 20260903080245 | 61 | 167 | 3.0 | 5.0 | 0.00 | 0.00 | 0.00 | 57 | 1008.1 |